sensor_id;sensor_type;location;lat;lon;timestamp;temperature;humidity
10231;DHT22;62604;49.432;8.680;2023-07-16T00:01:28;19.70;99.90
10231;DHT22;62604;49.432;8.680;2023-07-16T00:03:55;19.70;99.90
10231;DHT22;62604;49.432;8.680;2023-07-16T00:06:22;19.60;99.90
10231;DHT22;62604;49.432;8.680;2023-07-16T00:08:49;19.70;99.90
10231;DHT22;62604;49.432;8.680;2023-07-16T00:11:15;19.60;99.90
10231;DHT22;62604;49.432;8.680;2023-07-16T00:13:42;19.60;99.90
10231;DHT22;62604;49.432;8.680;2023-07-16T00:16:14;19.60;99.90
10231;DHT22;62604;49.432;8.680;2023-07-16T00:18:41;19.70;99.90
10231;DHT22;62604;49.432;8.680;2023-07-16T00:21:09;19.70;99.90
10231;DHT22;62604;49.432;8.680;2023-07-16T00:23:35;19.70;99.90
10231;DHT22;62604;49.432;8.680;2023-07-16T00:26:02;19.70;99.90
10231;DHT22;62604;49.432;8.680;2023-07-16T00:28:29;19.60;99.90
10231;DHT22;62604;49.432;8.680;2023-07-16T00:30:56;19.70;99.90
10231;DHT22;62604;49.432;8.680;2023-07-16T00:33:24;19.60;99.90
10231;DHT22;62604;49.432;8.680;2023-07-16T00:35:51;19.60;99.90
10231;DHT22;62604;49.432;8.680;2023-07-16T00:38:19;19.50;99.90
10231;DHT22;62604;49.432;8.680;2023-07-16T00:40:46;19.60;99.90
10231;DHT22;62604;49.432;8.680;2023-07-16T00:43:13;19.50;99.90
10231;DHT22;62604;49.432;8.680;2023-07-16T00:45:41;19.50;99.90
10231;DHT22;62604;49.432;8.680;2023-07-16T00:48:08;19.50;99.90
10231;DHT22;62604;49.432;8.680;2023-07-16T00:50:37;19.50;99.90
10231;DHT22;62604;49.432;8.680;2023-07-16T00:53:05;19.50;99.90
10231;DHT22;62604;49.432;8.680;2023-07-16T00:55:34;19.50;99.90
10231;DHT22;62604;49.432;8.680;2023-07-16T00:58:03;19.40;99.90
10231;DHT22;62604;49.432;8.680;2023-07-16T01:00:30;19.40;99.90
10231;DHT22;62604;49.432;8.680;2023-07-16T01:02:57;19.40;99.90
10231;DHT22;62604;49.432;8.680;2023-07-16T01:05:28;19.40;99.90
10231;DHT22;62604;49.432;8.680;2023-07-16T01:08:03;19.30;99.90
10231;DHT22;62604;49.432;8.680;2023-07-16T01:10:31;19.30;99.90
10231;DHT22;62604;49.432;8.680;2023-07-16T01:12:58;19.30;99.90
10231;DHT22;62604;49.432;8.680;2023-07-16T01:15:26;19.20;99.90
10231;DHT22;62604;49.432;8.680;2023-07-16T01:17:53;19.20;99.90
10231;DHT22;62604;49.432;8.680;2023-07-16T01:20:20;19.20;99.90
10231;DHT22;62604;49.432;8.680;2023-07-16T01:23:13;19.20;99.90
10231;DHT22;62604;49.432;8.680;2023-07-16T01:25:57;19.10;99.90
10231;DHT22;62604;49.432;8.680;2023-07-16T01:28:49;19.10;99.90
10231;DHT22;62604;49.432;8.680;2023-07-16T01:31:20;19.10;99.90
10231;DHT22;62604;49.432;8.680;2023-07-16T01:33:49;19.10;99.90
10231;DHT22;62604;49.432;8.680;2023-07-16T01:36:17;19.00;99.90
10231;DHT22;62604;49.432;8.680;2023-07-16T01:38:45;18.90;99.90
10231;DHT22;62604;49.432;8.680;2023-07-16T01:41:12;18.90;99.90
10231;DHT22;62604;49.432;8.680;2023-07-16T01:43:38;18.90;99.90
10231;DHT22;62604;49.432;8.680;2023-07-16T01:46:05;18.90;99.90
10231;DHT22;62604;49.432;8.680;2023-07-16T01:48:35;18.80;99.90
10231;DHT22;62604;49.432;8.680;2023-07-16T01:51:04;18.80;99.90
10231;DHT22;62604;49.432;8.680;2023-07-16T01:53:31;18.80;99.90
10231;DHT22;62604;49.432;8.680;2023-07-16T01:56:00;18.70;99.90
10231;DHT22;62604;49.432;8.680;2023-07-16T01:58:27;18.70;99.90
10231;DHT22;62604;49.432;8.680;2023-07-16T02:00:54;18.70;99.90
10231;DHT22;62604;49.432;8.680;2023-07-16T02:03:21;18.70;99.90
10231;DHT22;62604;49.432;8.680;2023-07-16T02:05:50;18.60;99.90
10231;DHT22;62604;49.432;8.680;2023-07-16T02:08:17;18.60;99.90
10231;DHT22;62604;49.432;8.680;2023-07-16T02:10:44;18.60;99.90
10231;DHT22;62604;49.432;8.680;2023-07-16T02:13:11;18.60;99.90
10231;DHT22;62604;49.432;8.680;2023-07-16T02:15:37;18.50;99.90
10231;DHT22;62604;49.432;8.680;2023-07-16T02:18:04;18.50;99.90
10231;DHT22;62604;49.432;8.680;2023-07-16T02:20:32;18.40;99.90
10231;DHT22;62604;49.432;8.680;2023-07-16T02:23:00;18.40;99.90
10231;DHT22;62604;49.432;8.680;2023-07-16T02:25:27;18.40;99.90
10231;DHT22;62604;49.432;8.680;2023-07-16T02:27:54;18.40;99.90
10231;DHT22;62604;49.432;8.680;2023-07-16T02:30:21;18.40;99.90
10231;DHT22;62604;49.432;8.680;2023-07-16T02:32:48;18.40;99.90
10231;DHT22;62604;49.432;8.680;2023-07-16T02:35:15;18.40;99.90
10231;DHT22;62604;49.432;8.680;2023-07-16T02:37:42;18.40;99.90
10231;DHT22;62604;49.432;8.680;2023-07-16T02:40:11;18.40;99.90
10231;DHT22;62604;49.432;8.680;2023-07-16T02:42:37;18.30;99.90
10231;DHT22;62604;49.432;8.680;2023-07-16T02:45:05;18.30;99.90
10231;DHT22;62604;49.432;8.680;2023-07-16T02:47:32;18.30;99.90
10231;DHT22;62604;49.432;8.680;2023-07-16T02:49:59;18.30;99.90
10231;DHT22;62604;49.432;8.680;2023-07-16T02:52:26;18.30;99.90
10231;DHT22;62604;49.432;8.680;2023-07-16T02:54:53;18.30;99.90
10231;DHT22;62604;49.432;8.680;2023-07-16T02:57:22;18.30;99.90
10231;DHT22;62604;49.432;8.680;2023-07-16T02:59:49;18.30;99.90
